METAR Data
IDs: Format: Raw Decoded Include TAF

Data at: 2001 UTC 18 Apr 2021

KGRB 181953Z 25006KT 10SM SCT085 15/M03 A2982 RMK AO2 SLP101 T01501028 $